sensor_id;sensor_type;location;lat;lon;timestamp;temperature;humidity
57833;DHT22;43667;53.036;6.740;2023-05-13T00:00:29;11.70;99.90
57833;DHT22;43667;53.036;6.740;2023-05-13T00:02:54;11.70;99.90
57833;DHT22;43667;53.036;6.740;2023-05-13T00:05:20;11.60;99.90
57833;DHT22;43667;53.036;6.740;2023-05-13T00:07:45;11.60;99.90
57833;DHT22;43667;53.036;6.740;2023-05-13T00:10:11;11.60;99.90
57833;DHT22;43667;53.036;6.740;2023-05-13T00:12:37;11.50;99.90
57833;DHT22;43667;53.036;6.740;2023-05-13T00:15:03;11.50;99.90
57833;DHT22;43667;53.036;6.740;2023-05-13T00:17:29;11.40;99.90
57833;DHT22;43667;53.036;6.740;2023-05-13T00:19:54;11.50;99.90
57833;DHT22;43667;53.036;6.740;2023-05-13T00:22:20;11.40;99.90
57833;DHT22;43667;53.036;6.740;2023-05-13T00:24:46;11.40;99.90
57833;DHT22;43667;53.036;6.740;2023-05-13T00:27:11;11.40;99.90
57833;DHT22;43667;53.036;6.740;2023-05-13T00:29:37;11.30;99.90
57833;DHT22;43667;53.036;6.740;2023-05-13T00:32:02;11.30;99.90
57833;DHT22;43667;53.036;6.740;2023-05-13T00:34:28;11.30;99.90
57833;DHT22;43667;53.036;6.740;2023-05-13T00:36:54;11.30;99.90
57833;DHT22;43667;53.036;6.740;2023-05-13T00:39:19;11.20;99.90
57833;DHT22;43667;53.036;6.740;2023-05-13T00:41:45;11.20;99.90
57833;DHT22;43667;53.036;6.740;2023-05-13T00:44:10;11.20;99.90
57833;DHT22;43667;53.036;6.740;2023-05-13T00:46:36;11.20;99.90
57833;DHT22;43667;53.036;6.740;2023-05-13T00:49:03;11.20;99.90
57833;DHT22;43667;53.036;6.740;2023-05-13T00:51:30;11.10;99.90
57833;DHT22;43667;53.036;6.740;2023-05-13T00:53:57;11.20;99.90
57833;DHT22;43667;53.036;6.740;2023-05-13T00:56:24;11.10;99.90
57833;DHT22;43667;53.036;6.740;2023-05-13T00:58:50;11.10;99.90
57833;DHT22;43667;53.036;6.740;2023-05-13T01:04:36;11.10;99.90
57833;DHT22;43667;53.036;6.740;2023-05-13T01:07:33;11.10;99.90
57833;DHT22;43667;53.036;6.740;2023-05-13T01:10:14;11.00;99.90
57833;DHT22;43667;53.036;6.740;2023-05-13T01:12:42;11.00;99.90
57833;DHT22;43667;53.036;6.740;2023-05-13T01:15:15;11.00;99.90
57833;DHT22;43667;53.036;6.740;2023-05-13T01:17:56;10.90;99.90
57833;DHT22;43667;53.036;6.740;2023-05-13T01:20:23;10.90;99.90
57833;DHT22;43667;53.036;6.740;2023-05-13T01:22:51;10.90;99.90
57833;DHT22;43667;53.036;6.740;2023-05-13T01:25:16;10.80;99.90
57833;DHT22;43667;53.036;6.740;2023-05-13T01:27:42;10.80;99.90
57833;DHT22;43667;53.036;6.740;2023-05-13T01:30:09;10.80;99.90
57833;DHT22;43667;53.036;6.740;2023-05-13T01:32:36;10.80;99.90
57833;DHT22;43667;53.036;6.740;2023-05-13T01:35:03;10.80;99.90
57833;DHT22;43667;53.036;6.740;2023-05-13T01:37:30;10.80;99.90
57833;DHT22;43667;53.036;6.740;2023-05-13T01:39:55;10.80;99.90
57833;DHT22;43667;53.036;6.740;2023-05-13T01:42:25;10.70;99.90
57833;DHT22;43667;53.036;6.740;2023-05-13T01:44:51;10.70;99.90
57833;DHT22;43667;53.036;6.740;2023-05-13T01:47:16;10.70;99.90
57833;DHT22;43667;53.036;6.740;2023-05-13T01:49:42;10.70;99.90
57833;DHT22;43667;53.036;6.740;2023-05-13T01:52:08;10.60;99.90
57833;DHT22;43667;53.036;6.740;2023-05-13T01:54:33;10.60;99.90
57833;DHT22;43667;53.036;6.740;2023-05-13T01:56:59;10.60;99.90
57833;DHT22;43667;53.036;6.740;2023-05-13T01:59:25;10.60;99.90
57833;DHT22;43667;53.036;6.740;2023-05-13T02:01:51;10.60;99.90
57833;DHT22;43667;53.036;6.740;2023-05-13T02:04:16;10.60;99.90
57833;DHT22;43667;53.036;6.740;2023-05-13T02:06:42;10.50;99.90
57833;DHT22;43667;53.036;6.740;2023-05-13T02:09:07;10.50;99.90
57833;DHT22;43667;53.036;6.740;2023-05-13T02:11:33;10.50;99.90
57833;DHT22;43667;53.036;6.740;2023-05-13T02:14:00;10.50;99.90
57833;DHT22;43667;53.036;6.740;2023-05-13T02:16:25;10.50;99.90
57833;DHT22;43667;53.036;6.740;2023-05-13T02:18:51;10.40;99.90
57833;DHT22;43667;53.036;6.740;2023-05-13T02:21:16;10.40;99.90
57833;DHT22;43667;53.036;6.740;2023-05-13T02:23:42;10.40;99.90
57833;DHT22;43667;53.036;6.740;2023-05-13T02:26:08;10.40;99.90
57833;DHT22;43667;53.036;6.740;2023-05-13T02:28:33;10.40;99.90
57833;DHT22;43667;53.036;6.740;2023-05-13T02:30:59;10.40;99.90
57833;DHT22;43667;53.036;6.740;2023-05-13T02:33:25;10.40;99.90
57833;DHT22;43667;53.036;6.740;2023-05-13T02:35:50;10.40;99.90
57833;DHT22;43667;53.036;6.740;2023-05-13T02:38:16;10.40;99.90
57833;DHT22;43667;53.036;6.740;2023-05-13T02:40:42;10.30;99.90
57833;DHT22;43667;53.036;6.740;2023-05-13T02:43:07;10.30;99.90
57833;DHT22;43667;53.036;6.740;2023-05-13T02:45:33;10.30;99.90
57833;DHT22;43667;53.036;6.740;2023-05-13T02:47:58;10.30;99.90
57833;DHT22;43667;53.036;6.740;2023-05-13T02:50:24;10.30;99.90
57833;DHT22;43667;53.036;6.740;2023-05-13T02:52:50;10.30;99.90
57833;DHT22;43667;53.036;6.740;2023-05-13T02:55:16;10.30;99.90
57833;DHT22;43667;53.036;6.740;2023-05-13T02:57:42;10.20;99.90
57833;DHT22;43667;53.036;6.740;2023-05-13T03:00:08;10.20;99.90
57833;DHT22;43667;53.036;6.740;2023-05-13T03:02:36;10.20;99.90
57833;DHT22;43667;53.036;6.740;2023-05-13T03:05:02;10.20;99.90
57833;DHT22;43667;53.036;6.740;2023-05-13T03:07:28;10.10;99.90
57833;DHT22;43667;53.036;6.740;2023-05-13T03:09:54;10.10;99.90
57833;DHT22;43667;53.036;6.740;2023-05-13T03:12:19;10.10;99.90
57833;DHT22;43667;53.036;6.740;2023-05-13T03:14:45;10.10;99.90
57833;DHT22;43667;53.036;6.740;2023-05-13T03:17:11;10.10;99.90
57833;DHT22;43667;53.036;6.740;2023-05-13T03:19:37;10.10;99.90
57833;DHT22;43667;53.036;6.740;2023-05-13T03:22:04;10.00;99.90
57833;DHT22;43667;53.036;6.740;2023-05-13T03:24:29;7.60;99.90
57833;DHT22;43667;53.036;6.740;2023-05-13T03:26:58;10.40;99.90
57833;DHT22;43667;53.036;6.740;2023-05-13T03:29:24;10.10;99.90
57833;DHT22;43667;53.036;6.740;2023-05-13T03:31:50;10.00;99.90
57833;DHT22;43667;53.036;6.740;2023-05-13T03:34:16;10.10;99.90
57833;DHT22;43667;53.036;6.740;2023-05-13T03:36:42;10.00;99.90
57833;DHT22;43667;53.036;6.740;2023-05-13T03:39:07;9.90;99.90
57833;DHT22;43667;53.036;6.740;2023-05-13T03:41:33;9.90;99.90
57833;DHT22;43667;53.036;6.740;2023-05-13T03:43:59;10.00;99.90
57833;DHT22;43667;53.036;6.740;2023-05-13T03:46:24;10.00;99.90
57833;DHT22;43667;53.036;6.740;2023-05-13T03:48:52;9.90;99.90
57833;DHT22;43667;53.036;6.740;2023-05-13T03:51:19;10.00;99.90
57833;DHT22;43667;53.036;6.740;2023-05-13T03:53:45;9.90;99.90
57833;DHT22;43667;53.036;6.740;2023-05-13T03:56:11;9.90;99.90
57833;DHT22;43667;53.036;6.740;2023-05-13T03:58:36;10.20;99.90
57833;DHT22;43667;53.036;6.740;2023-05-13T04:01:03;9.80;99.90
57833;DHT22;43667;53.036;6.740;2023-05-13T04:03:31;9.80;99.90
57833;DHT22;43667;53.036;6.740;2023-05-13T04:05:58;9.90;99.90
57833;DHT22;43667;53.036;6.740;2023-05-13T04:08:25;9.90;99.90
57833;DHT22;43667;53.036;6.740;2023-05-13T04:10:51;9.90;99.90
57833;DHT22;43667;53.036;6.740;2023-05-13T04:13:16;9.90;99.90
57833;DHT22;43667;53.036;6.740;2023-05-13T04:15:42;10.00;99.90
57833;DHT22;43667;53.036;6.740;2023-05-13T04:18:07;10.00;99.90
57833;DHT22;43667;53.036;6.740;2023-05-13T04:20:33;9.90;99.90
57833;DHT22;43667;53.036;6.740;2023-05-13T04:22:59;10.00;99.90
57833;DHT22;43667;53.036;6.740;2023-05-13T04:25:26;10.00;99.90
57833;DHT22;43667;53.036;6.740;2023-05-13T04:27:51;10.10;99.90
57833;DHT22;43667;53.036;6.740;2023-05-13T04:30:17;10.00;99.90
57833;DHT22;43667;53.036;6.740;2023-05-13T04:32:42;10.10;99.90
57833;DHT22;43667;53.036;6.740;2023-05-13T04:35:08;10.10;99.90
57833;DHT22;43667;53.036;6.740;2023-05-13T04:37:34;10.10;99.90
57833;DHT22;43667;53.036;6.740;2023-05-13T04:39:59;10.20;99.90
57833;DHT22;43667;53.036;6.740;2023-05-13T04:42:25;10.30;99.90
57833;DHT22;43667;53.036;6.740;2023-05-13T04:44:51;10.30;99.90
57833;DHT22;43667;53.036;6.740;2023-05-13T04:47:17;10.30;99.90
57833;DHT22;43667;53.036;6.740;2023-05-13T04:49:43;10.40;99.90
57833;DHT22;43667;53.036;6.740;2023-05-13T04:52:08;10.40;99.90
57833;DHT22;43667;53.036;6.740;2023-05-13T04:54:37;10.50;99.90
57833;DHT22;43667;53.036;6.740;2023-05-13T04:57:04;10.50;99.90
57833;DHT22;43667;53.036;6.740;2023-05-13T04:59:30;10.50;99.90
57833;DHT22;43667;53.036;6.740;2023-05-13T05:01:56;10.60;99.90
57833;DHT22;43667;53.036;6.740;2023-05-13T05:04:22;10.70;99.90
57833;DHT22;43667;53.036;6.740;2023-05-13T05:06:47;10.70;99.90
57833;DHT22;43667;53.036;6.740;2023-05-13T05:09:13;10.70;99.90
57833;DHT22;43667;53.036;6.740;2023-05-13T05:11:39;10.90;99.90
57833;DHT22;43667;53.036;6.740;2023-05-13T05:14:04;10.90;99.90
57833;DHT22;43667;53.036;6.740;2023-05-13T05:16:30;10.50;99.90
57833;DHT22;43667;53.036;6.740;2023-05-13T05:18:56;11.20;99.90
57833;DHT22;43667;53.036;6.740;2023-05-13T05:21:22;11.10;99.90
57833;DHT22;43667;53.036;6.740;2023-05-13T05:23:48;11.50;99.90
57833;DHT22;43667;53.036;6.740;2023-05-13T05:26:13;11.40;99.90
57833;DHT22;43667;53.036;6.740;2023-05-13T05:28:41;11.60;99.90
57833;DHT22;43667;53.036;6.740;2023-05-13T05:31:07;11.90;99.90
57833;DHT22;43667;53.036;6.740;2023-05-13T05:33:34;11.70;99.90
57833;DHT22;43667;53.036;6.740;2023-05-13T05:36:00;11.80;99.90
57833;DHT22;43667;53.036;6.740;2023-05-13T05:38:26;11.90;99.90
57833;DHT22;43667;53.036;6.740;2023-05-13T05:40:52;12.30;99.90
57833;DHT22;43667;53.036;6.740;2023-05-13T05:43:17;12.10;99.90
57833;DHT22;43667;53.036;6.740;2023-05-13T05:45:44;12.10;99.90
57833;DHT22;43667;53.036;6.740;2023-05-13T05:48:10;12.30;99.90
57833;DHT22;43667;53.036;6.740;2023-05-13T05:50:36;12.40;99.90
57833;DHT22;43667;53.036;6.740;2023-05-13T05:53:02;12.50;99.90
57833;DHT22;43667;53.036;6.740;2023-05-13T05:55:28;12.60;99.90
57833;DHT22;43667;53.036;6.740;2023-05-13T05:57:56;13.00;99.90
57833;DHT22;43667;53.036;6.740;2023-05-13T06:00:22;12.80;99.90
57833;DHT22;43667;53.036;6.740;2023-05-13T06:02:48;13.10;99.90
57833;DHT22;43667;53.036;6.740;2023-05-13T06:05:14;13.20;99.90
57833;DHT22;43667;53.036;6.740;2023-05-13T06:07:40;13.10;99.90
57833;DHT22;43667;53.036;6.740;2023-05-13T06:10:06;13.70;99.90
57833;DHT22;43667;53.036;6.740;2023-05-13T06:12:32;13.60;99.90
57833;DHT22;43667;53.036;6.740;2023-05-13T06:14:58;14.00;99.90
57833;DHT22;43667;53.036;6.740;2023-05-13T06:17:24;13.70;99.90
57833;DHT22;43667;53.036;6.740;2023-05-13T06:19:49;14.00;99.90
57833;DHT22;43667;53.036;6.740;2023-05-13T06:22:15;14.10;99.90
57833;DHT22;43667;53.036;6.740;2023-05-13T06:24:41;14.00;99.90
57833;DHT22;43667;53.036;6.740;2023-05-13T06:27:10;14.00;99.90
57833;DHT22;43667;53.036;6.740;2023-05-13T06:29:36;14.20;99.90
57833;DHT22;43667;53.036;6.740;2023-05-13T06:32:02;14.20;99.90
57833;DHT22;43667;53.036;6.740;2023-05-13T06:34:28;14.10;99.90
57833;DHT22;43667;53.036;6.740;2023-05-13T06:36:54;14.40;99.90
57833;DHT22;43667;53.036;6.740;2023-05-13T06:39:19;14.50;99.90
57833;DHT22;43667;53.036;6.740;2023-05-13T06:41:45;14.60;99.90
57833;DHT22;43667;53.036;6.740;2023-05-13T06:44:11;14.70;99.90
57833;DHT22;43667;53.036;6.740;2023-05-13T06:46:37;14.80;99.90
57833;DHT22;43667;53.036;6.740;2023-05-13T06:49:02;14.90;99.90
57833;DHT22;43667;53.036;6.740;2023-05-13T06:51:28;15.00;99.90
57833;DHT22;43667;53.036;6.740;2023-05-13T06:53:55;15.00;99.90
57833;DHT22;43667;53.036;6.740;2023-05-13T06:56:21;15.10;99.90
57833;DHT22;43667;53.036;6.740;2023-05-13T06:58:50;15.30;99.90
57833;DHT22;43667;53.036;6.740;2023-05-13T07:01:17;15.40;99.90
57833;DHT22;43667;53.036;6.740;2023-05-13T07:03:43;15.60;99.90
57833;DHT22;43667;53.036;6.740;2023-05-13T07:06:09;15.70;99.90
57833;DHT22;43667;53.036;6.740;2023-05-13T07:08:35;15.90;99.90
57833;DHT22;43667;53.036;6.740;2023-05-13T07:11:00;16.10;99.90
57833;DHT22;43667;53.036;6.740;2023-05-13T07:13:26;16.30;99.90
57833;DHT22;43667;53.036;6.740;2023-05-13T07:15:52;16.50;99.90
57833;DHT22;43667;53.036;6.740;2023-05-13T07:18:17;16.60;99.90
57833;DHT22;43667;53.036;6.740;2023-05-13T07:20:43;17.20;99.90
57833;DHT22;43667;53.036;6.740;2023-05-13T07:23:08;16.90;99.90
57833;DHT22;43667;53.036;6.740;2023-05-13T07:25:34;16.90;99.90
57833;DHT22;43667;53.036;6.740;2023-05-13T07:28:00;17.10;99.90
57833;DHT22;43667;53.036;6.740;2023-05-13T07:30:28;17.30;99.90
57833;DHT22;43667;53.036;6.740;2023-05-13T07:32:54;17.40;99.90
57833;DHT22;43667;53.036;6.740;2023-05-13T07:35:19;17.70;99.90
57833;DHT22;43667;53.036;6.740;2023-05-13T07:37:48;17.90;99.90
57833;DHT22;43667;53.036;6.740;2023-05-13T07:40:14;18.00;99.90
57833;DHT22;43667;53.036;6.740;2023-05-13T07:42:40;18.10;99.90
57833;DHT22;43667;53.036;6.740;2023-05-13T07:45:07;18.10;99.90
57833;DHT22;43667;53.036;6.740;2023-05-13T07:47:32;18.40;99.90
57833;DHT22;43667;53.036;6.740;2023-05-13T07:49:58;18.50;99.90
57833;DHT22;43667;53.036;6.740;2023-05-13T07:52:25;18.60;99.70
57833;DHT22;43667;53.036;6.740;2023-05-13T07:54:50;18.80;99.70
57833;DHT22;43667;53.036;6.740;2023-05-13T07:57:16;19.00;98.30
57833;DHT22;43667;53.036;6.740;2023-05-13T07:59:42;19.10;97.30
57833;DHT22;43667;53.036;6.740;2023-05-13T08:02:07;19.40;95.70
57833;DHT22;43667;53.036;6.740;2023-05-13T08:04:33;19.50;93.20
57833;DHT22;43667;53.036;6.740;2023-05-13T08:07:00;19.60;91.70
57833;DHT22;43667;53.036;6.740;2023-05-13T08:09:26;19.90;91.10
57833;DHT22;43667;53.036;6.740;2023-05-13T08:11:51;19.90;90.00
57833;DHT22;43667;53.036;6.740;2023-05-13T08:14:18;19.90;85.40
57833;DHT22;43667;53.036;6.740;2023-05-13T08:16:44;19.90;84.90
57833;DHT22;43667;53.036;6.740;2023-05-13T08:19:10;19.90;86.80
57833;DHT22;43667;53.036;6.740;2023-05-13T08:21:35;19.80;88.60
57833;DHT22;43667;53.036;6.740;2023-05-13T08:24:01;20.00;87.30
57833;DHT22;43667;53.036;6.740;2023-05-13T08:26:27;20.10;85.30
57833;DHT22;43667;53.036;6.740;2023-05-13T08:28:53;20.50;82.70
57833;DHT22;43667;53.036;6.740;2023-05-13T08:31:18;20.50;79.30
57833;DHT22;43667;53.036;6.740;2023-05-13T08:33:44;20.70;74.40
57833;DHT22;43667;53.036;6.740;2023-05-13T08:36:12;20.70;75.00
57833;DHT22;43667;53.036;6.740;2023-05-13T08:38:38;21.10;72.50
57833;DHT22;43667;53.036;6.740;2023-05-13T08:41:04;21.10;71.20
57833;DHT22;43667;53.036;6.740;2023-05-13T08:43:32;21.30;66.60
57833;DHT22;43667;53.036;6.740;2023-05-13T08:46:02;21.40;68.00
57833;DHT22;43667;53.036;6.740;2023-05-13T08:48:29;21.50;68.10
57833;DHT22;43667;53.036;6.740;2023-05-13T08:50:56;21.60;64.50
57833;DHT22;43667;53.036;6.740;2023-05-13T08:53:24;21.70;61.90
57833;DHT22;43667;53.036;6.740;2023-05-13T08:55:51;21.70;61.90
57833;DHT22;43667;53.036;6.740;2023-05-13T08:58:17;22.00;61.30
57833;DHT22;43667;53.036;6.740;2023-05-13T09:00:43;21.90;62.60
57833;DHT22;43667;53.036;6.740;2023-05-13T09:03:08;22.10;63.40
57833;DHT22;43667;53.036;6.740;2023-05-13T09:05:35;22.10;60.90
57833;DHT22;43667;53.036;6.740;2023-05-13T09:08:06;21.90;60.20
57833;DHT22;43667;53.036;6.740;2023-05-13T09:10:33;22.10;60.70
57833;DHT22;43667;53.036;6.740;2023-05-13T09:12:59;22.30;59.00
57833;DHT22;43667;53.036;6.740;2023-05-13T09:15:26;22.40;59.00
57833;DHT22;43667;53.036;6.740;2023-05-13T09:17:54;22.50;58.30
57833;DHT22;43667;53.036;6.740;2023-05-13T09:20:21;22.40;58.90
57833;DHT22;43667;53.036;6.740;2023-05-13T09:23:06;22.60;59.80
57833;DHT22;43667;53.036;6.740;2023-05-13T09:25:32;22.80;58.20
57833;DHT22;43667;53.036;6.740;2023-05-13T09:28:00;23.20;58.20
57833;DHT22;43667;53.036;6.740;2023-05-13T09:33:07;23.10;59.10
57833;DHT22;43667;53.036;6.740;2023-05-13T09:35:36;23.10;60.80
57833;DHT22;43667;53.036;6.740;2023-05-13T09:38:29;23.30;61.90
57833;DHT22;43667;53.036;6.740;2023-05-13T09:41:02;23.40;62.70
57833;DHT22;43667;53.036;6.740;2023-05-13T09:43:30;23.30;65.30
57833;DHT22;43667;53.036;6.740;2023-05-13T09:46:01;23.50;65.70
57833;DHT22;43667;53.036;6.740;2023-05-13T09:48:28;23.10;68.90
57833;DHT22;43667;53.036;6.740;2023-05-13T09:50:54;23.20;71.80
57833;DHT22;43667;53.036;6.740;2023-05-13T09:53:23;23.50;75.50
57833;DHT22;43667;53.036;6.740;2023-05-13T09:55:51;23.80;78.50
57833;DHT22;43667;53.036;6.740;2023-05-13T09:58:17;23.60;77.70
57833;DHT22;43667;53.036;6.740;2023-05-13T10:00:45;22.90;67.00
57833;DHT22;43667;53.036;6.740;2023-05-13T10:03:12;23.90;66.50
57833;DHT22;43667;53.036;6.740;2023-05-13T10:05:39;23.80;68.10
57833;DHT22;43667;53.036;6.740;2023-05-13T10:08:08;23.70;59.50
57833;DHT22;43667;53.036;6.740;2023-05-13T10:10:34;23.80;57.80
57833;DHT22;43667;53.036;6.740;2023-05-13T10:13:22;23.80;58.30
57833;DHT22;43667;53.036;6.740;2023-05-13T10:15:51;23.80;57.90
57833;DHT22;43667;53.036;6.740;2023-05-13T10:18:17;23.90;57.80
57833;DHT22;43667;53.036;6.740;2023-05-13T10:20:44;23.70;58.50
57833;DHT22;43667;53.036;6.740;2023-05-13T10:23:10;23.70;57.70
57833;DHT22;43667;53.036;6.740;2023-05-13T10:25:37;23.90;58.30
57833;DHT22;43667;53.036;6.740;2023-05-13T10:28:03;23.90;57.90
57833;DHT22;43667;53.036;6.740;2023-05-13T10:30:29;23.80;58.30
57833;DHT22;43667;53.036;6.740;2023-05-13T10:32:57;24.00;58.50
57833;DHT22;43667;53.036;6.740;2023-05-13T10:35:27;23.80;57.60
57833;DHT22;43667;53.036;6.740;2023-05-13T10:38:05;23.90;57.30
57833;DHT22;43667;53.036;6.740;2023-05-13T10:43:28;23.80;56.40
57833;DHT22;43667;53.036;6.740;2023-05-13T10:46:10;23.90;56.20
57833;DHT22;43667;53.036;6.740;2023-05-13T10:48:58;24.20;57.30
57833;DHT22;43667;53.036;6.740;2023-05-13T10:51:25;24.30;57.80
57833;DHT22;43667;53.036;6.740;2023-05-13T10:53:56;24.40;57.80
57833;DHT22;43667;53.036;6.740;2023-05-13T10:56:25;24.50;57.30
57833;DHT22;43667;53.036;6.740;2023-05-13T10:58:59;24.30;58.50
57833;DHT22;43667;53.036;6.740;2023-05-13T11:01:35;24.40;58.60
57833;DHT22;43667;53.036;6.740;2023-05-13T11:04:04;24.20;58.40
57833;DHT22;43667;53.036;6.740;2023-05-13T11:06:35;24.40;57.80
57833;DHT22;43667;53.036;6.740;2023-05-13T11:09:04;24.90;56.60
57833;DHT22;43667;53.036;6.740;2023-05-13T11:11:31;24.70;57.90
57833;DHT22;43667;53.036;6.740;2023-05-13T11:14:07;24.90;57.80
57833;DHT22;43667;53.036;6.740;2023-05-13T11:16:34;24.80;60.80
57833;DHT22;43667;53.036;6.740;2023-05-13T11:19:01;25.00;67.60
57833;DHT22;43667;53.036;6.740;2023-05-13T11:21:33;25.10;66.30
57833;DHT22;43667;53.036;6.740;2023-05-13T11:24:02;24.80;65.80
57833;DHT22;43667;53.036;6.740;2023-05-13T11:26:54;25.10;67.50
57833;DHT22;43667;53.036;6.740;2023-05-13T11:29:29;24.90;64.20
57833;DHT22;43667;53.036;6.740;2023-05-13T11:31:55;25.20;65.10
57833;DHT22;43667;53.036;6.740;2023-05-13T11:34:23;25.30;63.40
57833;DHT22;43667;53.036;6.740;2023-05-13T11:36:53;25.40;63.40
57833;DHT22;43667;53.036;6.740;2023-05-13T11:39:20;25.50;64.70
57833;DHT22;43667;53.036;6.740;2023-05-13T11:41:51;25.60;66.50
57833;DHT22;43667;53.036;6.740;2023-05-13T11:44:21;25.50;64.20
57833;DHT22;43667;53.036;6.740;2023-05-13T11:46:56;25.50;45.70
57833;DHT22;43667;53.036;6.740;2023-05-13T11:49:42;25.30;45.00
57833;DHT22;43667;53.036;6.740;2023-05-13T11:52:16;25.30;45.70
57833;DHT22;43667;53.036;6.740;2023-05-13T11:54:43;25.00;45.40
57833;DHT22;43667;53.036;6.740;2023-05-13T12:00:01;24.50;43.80
57833;DHT22;43667;53.036;6.740;2023-05-13T12:02:34;24.50;42.90
57833;DHT22;43667;53.036;6.740;2023-05-13T17:49:39;19.80;91.00
57833;DHT22;43667;53.036;6.740;2023-05-13T17:52:04;19.50;99.50
57833;DHT22;43667;53.036;6.740;2023-05-13T17:54:30;19.60;99.90
57833;DHT22;43667;53.036;6.740;2023-05-13T17:56:56;19.50;99.90
57833;DHT22;43667;53.036;6.740;2023-05-13T17:59:21;19.50;99.90
57833;DHT22;43667;53.036;6.740;2023-05-13T18:01:47;19.40;99.90
57833;DHT22;43667;53.036;6.740;2023-05-13T18:04:15;19.00;99.90
57833;DHT22;43667;53.036;6.740;2023-05-13T18:06:41;19.00;99.90
57833;DHT22;43667;53.036;6.740;2023-05-13T18:09:07;19.10;99.90
57833;DHT22;43667;53.036;6.740;2023-05-13T18:11:33;18.70;99.90
57833;DHT22;43667;53.036;6.740;2023-05-13T18:13:58;18.50;99.90
57833;DHT22;43667;53.036;6.740;2023-05-13T18:16:24;18.40;99.90
57833;DHT22;43667;53.036;6.740;2023-05-13T18:18:49;18.20;99.90
57833;DHT22;43667;53.036;6.740;2023-05-13T18:21:15;18.20;99.90
57833;DHT22;43667;53.036;6.740;2023-05-13T18:23:40;18.10;99.90
57833;DHT22;43667;53.036;6.740;2023-05-13T18:26:08;18.00;99.90
57833;DHT22;43667;53.036;6.740;2023-05-13T18:28:34;18.00;99.90
57833;DHT22;43667;53.036;6.740;2023-05-13T18:30:59;17.60;99.90
57833;DHT22;43667;53.036;6.740;2023-05-13T18:33:25;17.60;99.90
57833;DHT22;43667;53.036;6.740;2023-05-13T18:35:50;17.60;99.90
57833;DHT22;43667;53.036;6.740;2023-05-13T18:38:17;17.50;99.90
57833;DHT22;43667;53.036;6.740;2023-05-13T18:40:43;17.10;99.90
57833;DHT22;43667;53.036;6.740;2023-05-13T18:43:09;17.00;99.90
57833;DHT22;43667;53.036;6.740;2023-05-13T18:45:35;16.90;99.90
57833;DHT22;43667;53.036;6.740;2023-05-13T18:48:00;16.90;99.90
57833;DHT22;43667;53.036;6.740;2023-05-13T18:50:26;16.80;99.90
57833;DHT22;43667;53.036;6.740;2023-05-13T18:52:51;17.00;99.90
57833;DHT22;43667;53.036;6.740;2023-05-13T18:55:17;16.60;99.90
57833;DHT22;43667;53.036;6.740;2023-05-13T18:57:43;16.60;99.90
57833;DHT22;43667;53.036;6.740;2023-05-13T19:00:08;16.80;99.90
57833;DHT22;43667;53.036;6.740;2023-05-13T19:02:35;16.30;99.90
57833;DHT22;43667;53.036;6.740;2023-05-13T19:05:00;16.40;99.90
57833;DHT22;43667;53.036;6.740;2023-05-13T19:07:26;16.40;99.90
57833;DHT22;43667;53.036;6.740;2023-05-13T19:09:51;16.00;99.90
57833;DHT22;43667;53.036;6.740;2023-05-13T19:14:47;15.60;99.90
57833;DHT22;43667;53.036;6.740;2023-05-13T19:26:57;15.20;99.90
57833;DHT22;43667;53.036;6.740;2023-05-13T19:29:23;15.40;99.90
57833;DHT22;43667;53.036;6.740;2023-05-13T19:31:48;15.20;99.90
57833;DHT22;43667;53.036;6.740;2023-05-13T19:34:14;15.10;99.90
57833;DHT22;43667;53.036;6.740;2023-05-13T19:36:39;15.10;99.90
57833;DHT22;43667;53.036;6.740;2023-05-13T19:39:05;14.90;99.90
57833;DHT22;43667;53.036;6.740;2023-05-13T19:41:31;14.90;99.90
57833;DHT22;43667;53.036;6.740;2023-05-13T19:43:58;14.80;99.90
57833;DHT22;43667;53.036;6.740;2023-05-13T19:46:24;14.70;99.90
57833;DHT22;43667;53.036;6.740;2023-05-13T19:48:50;14.70;99.90
57833;DHT22;43667;53.036;6.740;2023-05-13T19:51:16;14.70;99.90
57833;DHT22;43667;53.036;6.740;2023-05-13T19:53:42;14.60;99.90
57833;DHT22;43667;53.036;6.740;2023-05-13T19:56:08;14.60;99.90
57833;DHT22;43667;53.036;6.740;2023-05-13T19:58:33;14.50;99.90
57833;DHT22;43667;53.036;6.740;2023-05-13T20:00:59;14.50;99.90
57833;DHT22;43667;53.036;6.740;2023-05-13T20:03:25;14.40;99.90
57833;DHT22;43667;53.036;6.740;2023-05-13T20:05:50;14.30;99.90
57833;DHT22;43667;53.036;6.740;2023-05-13T20:08:18;14.20;99.90
57833;DHT22;43667;53.036;6.740;2023-05-13T20:10:45;14.20;99.90
57833;DHT22;43667;53.036;6.740;2023-05-13T20:13:11;14.10;99.90
57833;DHT22;43667;53.036;6.740;2023-05-13T20:15:36;14.10;99.90
57833;DHT22;43667;53.036;6.740;2023-05-13T20:18:02;14.00;99.90
57833;DHT22;43667;53.036;6.740;2023-05-13T20:20:27;14.00;99.90
57833;DHT22;43667;53.036;6.740;2023-05-13T20:22:53;13.90;99.90
57833;DHT22;43667;53.036;6.740;2023-05-13T20:25:19;14.00;99.90
57833;DHT22;43667;53.036;6.740;2023-05-13T20:27:45;13.90;99.90
57833;DHT22;43667;53.036;6.740;2023-05-13T20:30:11;13.80;99.90
57833;DHT22;43667;53.036;6.740;2023-05-13T20:32:37;13.70;99.90
57833;DHT22;43667;53.036;6.740;2023-05-13T20:35:03;13.60;99.90
57833;DHT22;43667;53.036;6.740;2023-05-13T20:37:29;13.60;99.90
57833;DHT22;43667;53.036;6.740;2023-05-13T20:39:55;13.50;99.90
57833;DHT22;43667;53.036;6.740;2023-05-13T20:42:20;13.50;99.90
57833;DHT22;43667;53.036;6.740;2023-05-13T20:44:47;13.50;99.90
57833;DHT22;43667;53.036;6.740;2023-05-13T20:47:12;13.40;99.90
57833;DHT22;43667;53.036;6.740;2023-05-13T20:49:41;13.40;99.90
57833;DHT22;43667;53.036;6.740;2023-05-13T20:52:09;13.60;99.90
57833;DHT22;43667;53.036;6.740;2023-05-13T20:54:36;13.50;99.90
57833;DHT22;43667;53.036;6.740;2023-05-13T20:57:01;13.40;99.90
57833;DHT22;43667;53.036;6.740;2023-05-13T20:59:28;13.50;99.90
57833;DHT22;43667;53.036;6.740;2023-05-13T21:01:54;13.30;99.90
57833;DHT22;43667;53.036;6.740;2023-05-13T21:04:20;13.30;99.90
57833;DHT22;43667;53.036;6.740;2023-05-13T21:09:12;13.10;99.90
57833;DHT22;43667;53.036;6.740;2023-05-13T21:14:04;13.30;99.90
57833;DHT22;43667;53.036;6.740;2023-05-13T21:16:29;13.10;99.90
57833;DHT22;43667;53.036;6.740;2023-05-13T21:18:55;13.00;99.90
57833;DHT22;43667;53.036;6.740;2023-05-13T21:23:47;13.10;99.90
57833;DHT22;43667;53.036;6.740;2023-05-13T21:26:12;13.10;99.90
57833;DHT22;43667;53.036;6.740;2023-05-13T21:28:38;12.80;99.90
57833;DHT22;43667;53.036;6.740;2023-05-13T21:31:04;13.40;99.90
57833;DHT22;43667;53.036;6.740;2023-05-13T21:33:31;12.90;99.90
57833;DHT22;43667;53.036;6.740;2023-05-13T21:35:56;13.00;99.90
57833;DHT22;43667;53.036;6.740;2023-05-13T21:38:22;12.90;99.90
57833;DHT22;43667;53.036;6.740;2023-05-13T21:40:48;12.70;99.90
57833;DHT22;43667;53.036;6.740;2023-05-13T21:43:14;12.80;99.90
57833;DHT22;43667;53.036;6.740;2023-05-13T21:45:39;12.70;99.90